Time;durP1;ratioP1;P1;durP2;ratioP2;P2;SDS_P1;SDS_P2;PMS_P1;PMS_P2;Temp;Humidity;BMP_temperature;BMP_pressure;BME280_temperature;BME280_humidity;BME280_pressure;Samples;Min_cycle;Max_cycle;Signal;HPM_P1;HPM_P2
2023/05/18 00:01:39;;;;;;;3.88;2.67;;;7.70;96.30;;;;;;4997640;28;20094;-78
2023/05/18 00:04:06;;;;;;;4.10;2.58;;;7.70;96.60;;;;;;4997583;28;20030;-77
2023/05/18 00:06:32;;;;;;;5.00;2.70;;;7.70;96.80;;;;;;4997701;28;20110;-76
2023/05/18 00:08:58;;;;;;;6.40;3.13;;;7.70;97.00;;;;;;4997302;28;20362;-78
2023/05/18 00:11:23;;;;;;;3.38;2.30;;;7.60;97.10;;;;;;5012932;28;20022;-77
2023/05/18 00:13:49;;;;;;;9.57;2.63;;;7.60;97.20;;;;;;5017189;28;20179;-78
2023/05/18 00:16:15;;;;;;;5.38;3.20;;;7.60;97.30;;;;;;5016152;28;20037;-78
2023/05/18 00:18:41;;;;;;;3.80;2.45;;;7.70;97.40;;;;;;5015810;28;20022;-79
2023/05/18 00:21:07;;;;;;;6.03;2.30;;;7.70;97.50;;;;;;5013452;28;20117;-77
2023/05/18 00:23:34;;;;;;;6.45;3.10;;;7.70;97.50;;;;;;5017267;28;20026;-78
2023/05/18 00:26:02;;;;;;;5.90;2.83;;;7.70;97.50;;;;;;5016106;28;20426;-78
2023/05/18 00:28:28;;;;;;;4.15;2.60;;;7.70;97.50;;;;;;4997122;28;20022;-79
2023/05/18 00:30:55;;;;;;;5.03;2.20;;;7.70;97.50;;;;;;4997113;28;20384;-77
2023/05/18 00:33:24;;;;;;;3.92;2.67;;;7.70;97.90;;;;;;4982942;28;20019;-78
2023/05/18 00:35:50;;;;;;;4.45;2.72;;;7.60;97.70;;;;;;4974447;28;20443;-78
2023/05/18 00:38:16;;;;;;;4.53;2.58;;;7.60;97.80;;;;;;4977268;28;20065;-79
2023/05/18 00:40:44;;;;;;;5.65;2.92;;;7.60;97.90;;;;;;4977607;28;20499;-78
2023/05/18 00:43:10;;;;;;;6.03;3.13;;;7.50;98.10;;;;;;4984579;28;20088;-78
2023/05/18 00:45:36;;;;;;;5.60;3.03;;;7.50;98.20;;;;;;4996516;28;20074;-77
2023/05/18 00:48:02;;;;;;;7.93;3.20;;;7.40;98.40;;;;;;4997682;28;20030;-78
2023/05/18 00:50:27;;;;;;;8.50;3.58;;;7.30;98.60;;;;;;4996670;28;20093;-77
2023/05/18 00:52:53;;;;;;;4.43;3.40;;;7.30;98.80;;;;;;4996832;28;20054;-77
2023/05/18 00:55:19;;;;;;;6.43;3.70;;;7.30;99.00;;;;;;4996601;28;20054;-78
2023/05/18 00:57:46;;;;;;;4.57;2.70;;;7.30;99.20;;;;;;4996025;28;20085;-77
2023/05/18 01:00:13;;;;;;;4.47;3.17;;;7.30;99.30;;;;;;4995873;28;20069;-79
2023/05/18 01:02:44;;;;;;;3.83;2.85;;;7.30;99.40;;;;;;4986133;28;20049;-78
2023/05/18 01:05:11;;;;;;;2.88;2.15;;;7.20;99.50;;;;;;4974844;28;20054;-77
2023/05/18 01:07:43;;;;;;;4.18;2.83;;;7.20;99.80;;;;;;4975504;28;20082;-77
2023/05/18 01:10:10;;;;;;;4.32;3.30;;;7.20;99.90;;;;;;4976121;28;20102;-78
2023/05/18 01:13:05;;;;;;;4.57;2.90;;;7.20;99.90;;;;;;4975151;28;20038;-78
2023/05/18 01:15:36;;;;;;;4.18;2.75;;;7.10;99.90;;;;;;4976980;28;20124;-79
2023/05/18 01:18:32;;;;;;;5.22;2.85;;;7.10;99.90;;;;;;4996413;28;20021;-78
2023/05/18 01:21:00;;;;;;;6.78;3.45;;;7.00;99.90;;;;;;4996149;28;20022;-79
2023/05/18 02:03:30;;;;;;;7.63;3.33;;;6.40;99.90;;;;;;4906174;29;20065;-81
2023/05/18 02:57:32;;;;;;;4.05;2.67;;;6.30;99.90;;;;;;5007772;28;20038;-80
2023/05/18 03:11:08;;;;;;;;;;;;;;;;;;;;;
2023/05/18 03:14:00;;;;;;;7.95;3.35;;;6.40;99.90;;;;;;4957355;29;20154;-81
2023/05/18 03:17:06;;;;;;;;;;;;;;;;;;;;;
2023/05/18 03:23:29;;;;;;;5.40;3.60;;;6.30;99.90;;;;;;4954481;29;20020;-80
2023/05/18 03:26:59;;;;;;;5.30;4.00;;;6.30;99.90;;;;;;5012687;28;20061;-82
2023/05/18 03:43:33;;;;;;;5.55;3.78;;;6.10;99.90;;;;;;4980748;28;20206;-82
2023/05/18 03:46:22;;;;;;;5.25;3.83;;;6.10;99.90;;;;;;4976963;28;20031;-80
2023/05/18 03:49:21;;;;;;;4.55;2.97;;;6.10;99.90;;;;;;4971274;28;20177;-82
2023/05/18 03:51:49;;;;;;;5.57;3.45;;;6.20;99.90;;;;;;4972765;28;20031;-81
2023/05/18 03:54:57;;;;;;;;;;;;;;;;;;;;;
2023/05/18 04:10:41;;;;;;;6.40;4.03;;;6.30;99.90;;;;;;4960511;28;20345;-82
2023/05/18 04:13:54;;;;;;;5.28;4.15;;;6.30;99.90;;;;;;4943448;29;20436;-81
2023/05/18 04:16:30;;;;;;;5.63;3.60;;;6.40;99.90;;;;;;4987964;28;20049;-81
2023/05/18 04:18:56;;;;;;;4.13;3.22;;;6.40;99.90;;;;;;5001374;28;20678;-81
2023/05/18 04:21:29;;;;;;;7.10;3.58;;;6.50;99.90;;;;;;5000115;28;20030;-81
2023/05/18 04:24:25;;;;;;;;;;;;;;;;;;;;;
2023/05/18 04:30:39;;;;;;;4.90;3.65;;;6.60;99.90;;;;;;5000186;28;20027;-81
2023/05/18 04:33:07;;;;;;;4.35;3.42;;;6.70;99.90;;;;;;5005412;28;20704;-81
2023/05/18 04:35:33;;;;;;;6.53;3.90;;;6.70;99.90;;;;;;5011533;28;20041;-80
2023/05/18 04:38:26;;;;;;;4.90;3.17;;;6.80;99.90;;;;;;5015614;28;20026;-81
2023/05/18 04:41:35;;;;;;;5.15;3.53;;;6.90;99.90;;;;;;5000533;28;20149;-81
2023/05/18 04:44:02;;;;;;;6.80;3.97;;;7.00;99.90;;;;;;5000015;28;20309;-81
2023/05/18 04:46:28;;;;;;;5.45;4.30;;;7.10;99.90;;;;;;4999059;28;20026;-81
2023/05/18 04:48:56;;;;;;;8.68;5.10;;;7.20;99.90;;;;;;5010787;28;20069;-81
2023/05/18 04:51:23;;;;;;;6.32;4.20;;;7.20;99.90;;;;;;5017739;28;20033;-81
2023/05/18 04:53:50;;;;;;;7.18;4.20;;;7.30;99.90;;;;;;5019350;28;20113;-81
2023/05/18 04:56:21;;;;;;;7.72;4.25;;;7.30;99.90;;;;;;5017051;28;20032;-80
2023/05/18 04:58:47;;;;;;;4.93;3.53;;;7.30;99.90;;;;;;5015774;28;20025;-81
2023/05/18 05:01:14;;;;;;;4.28;3.88;;;7.50;99.90;;;;;;4997622;28;20033;-80
2023/05/18 05:03:41;;;;;;;4.07;3.30;;;7.60;99.90;;;;;;4997126;28;20026;-80
2023/05/18 05:06:07;;;;;;;6.43;4.05;;;7.70;99.90;;;;;;5017925;28;20512;-82
2023/05/18 05:08:33;;;;;;;4.35;3.42;;;7.70;99.90;;;;;;5015800;28;20045;-80
2023/05/18 05:11:00;;;;;;;3.95;3.42;;;;;;;;;;5017554;28;20022;-81
2023/05/18 05:13:26;;;;;;;6.47;3.10;;;9.90;99.90;;;;;;5018811;28;20029;-82
2023/05/18 05:15:51;;;;;;;4.60;3.30;;;11.20;99.90;;;;;;5018093;28;20080;-80
2023/05/18 05:18:17;;;;;;;4.50;2.92;;;11.20;97.70;;;;;;5017101;28;20058;-81
2023/05/18 05:20:43;;;;;;;4.97;2.65;;;11.00;97.80;;;;;;5013076;28;20057;-81
2023/05/18 05:23:09;;;;;;;3.78;2.35;;;10.90;97.80;;;;;;4998186;28;20359;-81
2023/05/18 05:25:34;;;;;;;3.13;2.15;;;10.90;97.60;;;;;;5007548;28;20029;-81
2023/05/18 05:28:00;;;;;;;4.53;2.80;;;10.90;97.70;;;;;;5017663;28;20041;-81
2023/05/18 05:30:26;;;;;;;5.20;3.47;;;11.10;97.40;;;;;;5011547;28;20094;-81
2023/05/18 05:35:49;;;;;;;4.20;2.53;;;13.50;94.70;;;;;;4062494;23;20053;-80
2023/05/18 05:38:36;;;;;;;3.78;2.67;;;15.10;90.70;;;;;;5002766;28;20382;-82
2023/05/18 05:44:16;;;;;;;2.45;2.00;;;16.90;80.40;;;;;;4984296;28;20037;-81
2023/05/18 05:46:49;;;;;;;3.10;2.53;;;17.80;75.90;;;;;;4962370;28;20095;-81
2023/05/18 05:49:15;;;;;;;2.13;1.92;;;18.30;70.30;;;;;;4979797;28;20019;-82
2023/05/18 05:51:50;;;;;;;4.40;2.15;;;18.50;69.30;;;;;;4992864;28;20015;-80
2023/05/18 05:54:47;;;;;;;3.38;1.83;;;18.50;67.20;;;;;;4993515;28;20089;-80
2023/05/18 05:57:15;;;;;;;2.78;1.35;;;18.70;66.70;;;;;;4980630;28;20027;-80
2023/05/18 05:59:46;;;;;;;1.75;1.40;;;19.80;66.00;;;;;;4990216;28;20105;-81
2023/05/18 06:02:17;;;;;;;2.97;1.70;;;19.60;64.70;;;;;;5005396;28;20018;-81
2023/05/18 06:04:43;;;;;;;4.80;2.45;;;19.90;61.20;;;;;;5010783;28;20014;-80
2023/05/18 06:07:11;;;;;;;3.00;1.77;;;19.80;59.40;;;;;;5009312;28;20058;-82
2023/05/18 06:09:37;;;;;;;3.30;2.25;;;19.80;60.30;;;;;;5010800;28;20022;-81
2023/05/18 06:12:04;;;;;;;4.53;2.58;;;20.30;59.20;;;;;;5014223;28;20081;-81
2023/05/18 06:14:29;;;;;;;4.03;2.38;;;20.50;57.40;;;;;;5007946;28;20033;-80
2023/05/18 06:16:55;;;;;;;3.10;1.58;;;20.40;57.50;;;;;;5009751;28;20042;-80
2023/05/18 06:19:23;;;;;;;1.75;1.65;;;20.70;57.30;;;;;;4998265;28;20061;-80
2023/05/18 06:21:49;;;;;;;2.75;1.70;;;20.80;56.50;;;;;;5015496;28;20015;-80
2023/05/18 06:24:15;;;;;;;3.00;1.60;;;21.10;57.40;;;;;;5014714;28;20751;-80
2023/05/18 06:26:41;;;;;;;4.20;2.42;;;21.40;54.80;;;;;;5014897;28;20106;-79
2023/05/18 06:29:07;;;;;;;4.38;2.08;;;21.10;54.40;;;;;;4986478;28;20034;-80
2023/05/18 06:31:33;;;;;;;3.97;1.88;;;20.70;55.10;;;;;;4995751;28;20026;-81
2023/05/18 06:33:59;;;;;;;6.38;2.50;;;20.90;55.70;;;;;;4976595;28;20058;-80
2023/05/18 06:36:25;;;;;;;4.07;2.35;;;20.90;54.20;;;;;;4980535;28;20472;-80
2023/05/18 06:38:51;;;;;;;3.80;2.03;;;20.50;54.70;;;;;;4981627;28;20026;-80
2023/05/18 06:41:16;;;;;;;5.82;2.28;;;20.30;55.60;;;;;;4991739;28;20085;-80
2023/05/18 06:43:42;;;;;;;4.05;1.98;;;;;;;;;;5002556;28;20380;-82
2023/05/18 06:46:08;;;;;;;4.47;2.60;;;18.30;57.80;;;;;;4978478;28;20050;-81
2023/05/18 06:48:36;;;;;;;6.25;3.15;;;17.60;59.90;;;;;;4997313;28;20508;-81
2023/05/18 06:51:01;;;;;;;4.47;2.88;;;17.00;62.40;;;;;;4979165;28;20023;-81
2023/05/18 06:53:27;;;;;;;4.03;2.75;;;16.60;63.30;;;;;;4980148;28;20018;-81
2023/05/18 06:55:53;;;;;;;4.47;2.70;;;16.80;64.80;;;;;;4996438;28;20022;-82
2023/05/18 06:58:19;;;;;;;3.50;1.80;;;17.30;63.70;;;;;;4979813;28;20064;-80
2023/05/18 07:00:45;;;;;;;4.18;2.17;;;17.90;62.90;;;;;;4996210;28;20470;-80
2023/05/18 07:03:10;;;;;;;6.07;3.20;;;18.00;61.50;;;;;;4995057;28;20213;-80
2023/05/18 07:05:36;;;;;;;4.93;2.90;;;17.40;62.40;;;;;;4979296;28;20029;-82
2023/05/18 07:08:03;;;;;;;5.40;3.08;;;;;;;;;;4980797;28;20034;-81
2023/05/18 07:10:29;;;;;;;5.43;2.95;;;15.20;65.70;;;;;;4997665;28;20048;-81
2023/05/18 07:12:55;;;;;;;4.97;3.25;;;14.40;69.80;;;;;;4998199;28;20031;-81
2023/05/18 07:15:21;;;;;;;5.22;2.60;;;14.20;70.90;;;;;;4996890;28;20035;-81
2023/05/18 07:17:46;;;;;;;6.13;3.10;;;14.10;71.30;;;;;;4981937;28;20099;-82
2023/05/18 07:20:14;;;;;;;6.72;2.40;;;13.80;70.10;;;;;;4999239;28;20026;-81
2023/05/18 07:31:05;;;;;;;;;;;;;;;;;;;;;
2023/05/18 07:37:36;;;;;;;7.18;2.75;;;14.00;70.20;;;;;;5038339;28;20075;-81
2023/05/18 07:40:06;;;;;;;7.50;3.13;;;13.80;69.60;;;;;;5028063;28;20072;-80
2023/05/18 07:43:04;;;;;;;7.13;2.78;;;13.50;71.50;;;;;;5034374;28;20018;-79
2023/05/18 07:48:53;;;;;;;6.10;2.25;;;13.70;73.00;;;;;;5040466;28;20101;-81
2023/05/18 07:51:26;;;;;;;4.80;2.23;;;13.70;72.50;;;;;;5022474;28;20025;-82
2023/05/18 07:54:05;;;;;;;;;;;;;;;;;;;;;
2023/05/18 07:56:46;;;;;;;6.05;3.00;;;13.90;70.50;;;;;;5039933;28;20081;-82
2023/05/18 08:00:05;;;;;;;5.93;2.83;;;;;;;;;;5041215;28;20021;-81
2023/05/18 08:02:01;;;;;;;8.45;2.60;;;13.90;68.10;;;;;;5016447;28;20034;-81
2023/05/18 08:04:50;;;;;;;3.53;1.98;;;13.70;68.40;;;;;;5045865;28;20013;-80
2023/05/18 08:07:33;;;;;;;7.70;2.58;;;13.80;69.60;;;;;;5039368;28;20096;-80
2023/05/18 08:13:37;;;;;;;7.88;2.97;;;13.40;67.10;;;;;;5018482;28;20048;-81
2023/05/18 08:16:11;;;;;;;12.02;2.67;;;13.30;67.30;;;;;;5043735;28;20056;-80
2023/05/18 08:18:37;;;;;;;5.47;2.80;;;13.20;68.70;;;;;;5040742;28;20091;-81
2023/05/18 08:21:14;;;;;;;9.13;2.65;;;13.20;68.30;;;;;;5031931;28;20041;-80
2023/05/18 08:23:40;;;;;;;5.65;2.42;;;13.20;69.00;;;;;;5020802;28;20097;-83
2023/05/18 08:36:36;;;;;;;8.88;3.00;;;14.10;67.90;;;;;;5043180;23;20101;-78
2023/05/18 08:39:03;;;;;;;7.35;2.50;;;14.20;67.40;;;;;;5016819;28;20022;-77
2023/05/18 08:41:33;;;;;;;5.60;2.45;;;14.00;68.00;;;;;;5017333;28;20097;-77
2023/05/18 08:44:14;;;;;;;6.97;3.53;;;14.00;68.80;;;;;;5016160;28;20412;-78
2023/05/18 08:46:41;;;;;;;8.57;2.53;;;14.20;67.60;;;;;;4998715;28;20046;-77
2023/05/18 08:49:09;;;;;;;6.07;2.35;;;14.40;67.60;;;;;;4996852;28;20034;-79
2023/05/18 08:51:36;;;;;;;5.10;2.38;;;14.70;67.30;;;;;;4996578;28;20376;-78
2023/05/18 08:54:04;;;;;;;5.25;2.53;;;14.80;67.10;;;;;;4996641;28;20029;-78
2023/05/18 08:56:33;;;;;;;7.07;2.72;;;14.90;66.40;;;;;;4995888;28;20027;-77
2023/05/18 08:59:02;;;;;;;5.80;2.38;;;14.80;65.20;;;;;;4996123;28;20109;-78
2023/05/18 09:01:28;;;;;;;8.05;1.90;;;14.90;65.40;;;;;;4988712;28;20023;-79
2023/05/18 09:03:56;;;;;;;6.93;2.55;;;15.30;64.40;;;;;;4977302;28;20026;-77
2023/05/18 09:06:23;;;;;;;9.82;2.42;;;15.40;63.50;;;;;;4996484;28;20030;-77
2023/05/18 09:08:51;;;;;;;6.20;2.47;;;15.40;62.30;;;;;;4996188;28;20022;-77
2023/05/18 09:11:17;;;;;;;5.35;2.70;;;15.40;63.10;;;;;;4996251;28;20395;-78
2023/05/18 09:13:43;;;;;;;5.80;2.80;;;15.40;62.80;;;;;;4996148;28;20030;-79
2023/05/18 09:16:09;;;;;;;5.30;2.53;;;15.40;62.00;;;;;;4978279;28;20026;-78
2023/05/18 09:18:35;;;;;;;7.68;2.90;;;15.60;61.50;;;;;;4996654;28;20380;-79
2023/05/18 09:21:01;;;;;;;5.45;2.33;;;15.40;61.50;;;;;;4995821;28;20037;-77
2023/05/18 09:23:27;;;;;;;8.88;2.72;;;15.40;61.90;;;;;;4996270;28;20031;-77
2023/05/18 09:25:53;;;;;;;4.57;2.03;;;15.60;62.60;;;;;;4996777;28;20022;-78
2023/05/18 09:28:30;;;;;;;3.92;2.22;;;16.00;62.00;;;;;;4998084;28;20023;-77
2023/05/18 09:30:56;;;;;;;5.13;2.30;;;16.00;61.70;;;;;;4977642;28;20031;-78
2023/05/18 09:33:22;;;;;;;9.90;3.20;;;15.90;61.90;;;;;;4993105;28;20443;-77
2023/05/18 09:35:49;;;;;;;6.55;3.10;;;15.70;61.10;;;;;;4996869;28;20058;-76
2023/05/18 09:38:20;;;;;;;5.13;2.80;;;15.50;61.80;;;;;;4998015;28;20026;-76
2023/05/18 09:40:47;;;;;;;7.03;3.85;;;15.00;63.20;;;;;;4999174;28;20033;-79
2023/05/18 09:43:13;;;;;;;6.18;2.63;;;14.80;63.80;;;;;;4999113;28;20101;-78
2023/05/18 09:45:45;;;;;;;9.40;3.30;;;14.80;64.70;;;;;;4998934;28;20422;-78
2023/05/18 09:48:11;;;;;;;11.50;3.25;;;14.90;65.00;;;;;;4997991;28;20435;-78
2023/05/18 09:50:38;;;;;;;10.48;3.45;;;14.90;65.40;;;;;;4997107;28;20023;-78
2023/05/18 09:53:08;;;;;;;8.32;3.10;;;15.00;65.30;;;;;;4996414;28;20022;-77
2023/05/18 09:55:44;;;;;;;7.53;3.03;;;14.90;65.10;;;;;;4977690;28;20439;-77
2023/05/18 09:58:10;;;;;;;5.35;2.90;;;14.90;66.00;;;;;;4997338;28;20031;-78
2023/05/18 10:00:48;;;;;;;6.50;2.60;;;15.20;65.60;;;;;;4972740;28;20034;-77
2023/05/18 10:03:22;;;;;;;9.10;3.72;;;15.50;64.30;;;;;;4976096;28;20033;-77
2023/05/18 10:05:48;;;;;;;7.43;3.75;;;15.60;63.20;;;;;;4976933;28;20055;-77
2023/05/18 10:08:14;;;;;;;8.73;3.15;;;15.30;63.10;;;;;;4995565;28;20022;-78
2023/05/18 10:10:45;;;;;;;5.93;2.67;;;15.30;64.20;;;;;;4995777;28;20102;-77
2023/05/18 10:13:19;;;;;;;8.00;3.10;;;15.20;64.30;;;;;;4996997;28;20027;-77
2023/05/18 10:15:54;;;;;;;7.25;2.78;;;15.10;63.30;;;;;;4995784;28;20325;-78
2023/05/18 10:18:27;;;;;;;4.25;2.13;;;15.10;64.10;;;;;;4960065;28;20530;-77
2023/05/18 10:20:58;;;;;;;10.05;2.50;;;15.10;64.80;;;;;;4976900;28;20034;-78
2023/05/18 10:23:25;;;;;;;6.00;1.92;;;15.20;64.50;;;;;;4983509;28;20030;-78
2023/05/18 10:25:52;;;;;;;4.10;2.30;;;15.30;64.10;;;;;;4998283;28;20152;-78
2023/05/18 10:28:31;;;;;;;5.07;2.40;;;15.30;63.60;;;;;;5000440;28;20034;-78
2023/05/18 10:30:59;;;;;;;3.67;2.28;;;15.20;63.90;;;;;;4991471;28;20495;-77
2023/05/18 10:33:26;;;;;;;7.32;3.00;;;15.20;63.40;;;;;;4991241;28;20035;-79
2023/05/18 10:35:53;;;;;;;8.02;3.00;;;15.10;62.50;;;;;;4977015;28;20035;-78
2023/05/18 10:38:26;;;;;;;3.00;1.90;;;15.10;63.00;;;;;;4976448;28;20061;-77
2023/05/18 10:40:59;;;;;;;3.83;2.65;;;15.10;63.10;;;;;;4963567;28;20026;-76
2023/05/18 10:43:26;;;;;;;4.85;2.13;;;15.20;63.00;;;;;;4984722;28;20050;-76
2023/05/18 10:45:53;;;;;;;7.85;2.97;;;15.20;62.00;;;;;;5002465;28;20026;-77
2023/05/18 10:48:21;;;;;;;5.53;2.28;;;15.20;61.90;;;;;;5002862;28;20030;-77
2023/05/18 10:50:51;;;;;;;4.50;2.10;;;15.10;62.10;;;;;;5003877;28;20033;-77
2023/05/18 10:53:23;;;;;;;4.32;1.90;;;15.40;63.20;;;;;;4997095;28;20096;-77
2023/05/18 10:55:50;;;;;;;7.05;2.20;;;15.70;62.40;;;;;;4995247;28;20478;-77
2023/05/18 10:58:24;;;;;;;6.13;2.60;;;15.90;60.10;;;;;;4996350;28;20069;-77
2023/05/18 11:00:54;;;;;;;2.92;1.88;;;15.80;61.00;;;;;;4987380;28;20558;-76
2023/05/18 11:03:21;;;;;;;4.82;2.15;;;15.60;60.80;;;;;;4993778;28;20038;-79
2023/05/18 11:05:51;;;;;;;4.75;2.38;;;15.40;61.70;;;;;;4994507;28;20363;-78
2023/05/18 11:08:26;;;;;;;4.13;2.03;;;15.50;61.40;;;;;;4995123;28;20080;-77
2023/05/18 11:11:03;;;;;;;3.88;2.00;;;15.50;62.50;;;;;;4998477;28;20030;-78
2023/05/18 11:13:30;;;;;;;3.95;1.55;;;15.60;62.00;;;;;;4994755;28;20069;-78
2023/05/18 11:15:57;;;;;;;8.73;3.00;;;15.40;62.30;;;;;;4993976;28;20023;-78
2023/05/18 11:18:49;;;;;;;4.38;2.22;;;15.30;61.90;;;;;;4995674;28;20029;-76
2023/05/18 11:21:30;;;;;;;6.07;2.25;;;15.00;63.30;;;;;;4999712;28;20030;-77
2023/05/18 11:24:22;;;;;;;5.47;1.90;;;14.70;63.80;;;;;;4999217;28;20639;-78
2023/05/18 11:26:53;;;;;;;5.35;1.65;;;14.60;65.10;;;;;;4998751;28;20050;-79
2023/05/18 11:29:18;;;;;;;4.47;2.22;;;14.50;64.80;;;;;;4999432;28;20518;-79
2023/05/18 11:31:46;;;;;;;6.07;1.83;;;14.60;64.70;;;;;;4991009;28;20027;-79
2023/05/18 11:34:41;;;;;;;4.25;1.80;;;14.70;63.90;;;;;;4982184;28;20018;-79
2023/05/18 11:37:08;;;;;;;5.45;1.90;;;14.90;63.60;;;;;;4998972;28;20039;-78
2023/05/18 11:39:34;;;;;;;3.17;1.90;;;15.00;63.30;;;;;;4998403;28;20018;-78
2023/05/18 11:42:13;;;;;;;7.15;2.47;;;15.10;63.20;;;;;;4998686;28;20029;-77
2023/05/18 11:44:39;;;;;;;4.55;2.00;;;15.10;62.70;;;;;;4998245;28;20491;-78
2023/05/18 11:47:10;;;;;;;3.20;1.58;;;15.30;63.30;;;;;;4992574;28;20031;-78
2023/05/18 11:49:45;;;;;;;2.93;1.57;;;15.40;61.90;;;;;;4978825;28;20026;-77
2023/05/18 11:52:11;;;;;;;3.67;1.77;;;15.50;62.20;;;;;;4984071;28;20301;-78
2023/05/18 11:54:48;;;;;;;3.85;1.70;;;15.70;62.60;;;;;;4996846;28;20054;-77
2023/05/18 11:57:16;;;;;;;3.08;1.60;;;16.10;61.80;;;;;;4997384;28;20026;-77
2023/05/18 12:00:08;;;;;;;3.08;1.92;;;16.40;61.10;;;;;;4991255;28;20055;-79
2023/05/18 12:02:34;;;;;;;5.43;2.38;;;16.70;59.50;;;;;;4994003;28;20383;-76
2023/05/18 12:05:05;;;;;;;4.82;2.28;;;16.50;59.20;;;;;;4997732;28;20045;-79
2023/05/18 12:07:33;;;;;;;5.68;1.92;;;16.20;59.60;;;;;;4999003;28;20025;-78
2023/05/18 12:10:00;;;;;;;5.55;2.05;;;16.10;60.30;;;;;;4999658;28;20114;-77
2023/05/18 12:12:27;;;;;;;4.20;2.00;;;16.20;60.70;;;;;;4997340;28;20042;-79
2023/05/18 12:14:58;;;;;;;5.85;2.45;;;16.30;60.30;;;;;;4979783;28;20369;-79
2023/05/18 12:17:44;;;;;;;3.85;1.92;;;16.30;59.30;;;;;;4997636;28;20027;-77
2023/05/18 12:20:12;;;;;;;2.85;1.45;;;15.80;60.30;;;;;;4997356;28;20030;-77
2023/05/18 12:22:43;;;;;;;2.05;1.50;;;15.80;61.90;;;;;;4997242;28;20026;-78
2023/05/18 12:25:10;;;;;;;4.78;2.00;;;16.50;60.80;;;;;;4996524;28;20076;-77
2023/05/18 12:27:43;;;;;;;3.90;1.70;;;;;;;;;;4962934;28;20042;-79
2023/05/18 12:30:19;;;;;;;3.63;1.65;;;17.30;55.30;;;;;;4987311;28;20034;-78
2023/05/18 12:32:50;;;;;;;2.90;1.70;;;16.80;57.30;;;;;;4973345;28;20540;-78
2023/05/18 12:35:20;;;;;;;2.45;1.90;;;16.50;58.70;;;;;;4995027;28;20113;-77
2023/05/18 12:37:46;;;;;;;3.30;1.42;;;16.60;58.50;;;;;;4980699;28;20077;-77
2023/05/18 12:40:14;;;;;;;5.68;2.17;;;16.60;58.40;;;;;;4977044;28;20034;-76
2023/05/18 12:42:50;;;;;;;3.67;1.52;;;16.40;58.30;;;;;;4977109;28;20162;-77
2023/05/18 12:45:16;;;;;;;5.20;1.70;;;16.10;59.20;;;;;;4978051;28;20030;-79
2023/05/18 12:47:42;;;;;;;5.18;2.13;;;15.90;59.60;;;;;;4978570;28;20045;-78
2023/05/18 12:50:08;;;;;;;4.07;1.88;;;16.10;59.70;;;;;;4977558;28;20033;-78
2023/05/18 12:52:33;;;;;;;2.78;1.95;;;16.30;59.10;;;;;;4960263;28;20027;-76
2023/05/18 12:54:59;;;;;;;2.60;1.40;;;16.30;59.40;;;;;;4977862;28;20392;-78
2023/05/18 12:57:26;;;;;;;5.07;2.08;;;16.40;59.90;;;;;;4985154;28;20113;-77
2023/05/18 12:59:56;;;;;;;3.10;1.52;;;16.40;59.60;;;;;;4990238;28;20031;-77
2023/05/18 13:02:33;;;;;;;4.22;1.63;;;16.20;59.20;;;;;;4989952;28;20019;-77
2023/05/18 13:05:22;;;;;;;3.47;1.50;;;16.30;59.60;;;;;;4995430;28;20390;-78
2023/05/18 13:07:48;;;;;;;2.00;1.38;;;16.40;59.00;;;;;;4996686;28;20026;-76
2023/05/18 13:10:16;;;;;;;2.80;1.40;;;16.30;58.80;;;;;;4998367;28;20022;-77
2023/05/18 13:12:49;;;;;;;2.75;1.30;;;16.30;58.90;;;;;;4996964;28;20027;-78
2023/05/18 13:15:16;;;;;;;3.25;1.65;;;16.20;59.10;;;;;;4997268;28;20026;-78
2023/05/18 13:17:57;;;;;;;3.33;1.52;;;15.90;59.70;;;;;;4996363;28;20050;-79
2023/05/18 13:20:35;;;;;;;3.47;1.60;;;15.70;60.20;;;;;;4996587;28;20032;-78
2023/05/18 13:23:12;;;;;;;4.22;1.70;;;15.30;61.00;;;;;;4996545;28;20156;-77
2023/05/18 13:25:41;;;;;;;5.80;2.08;;;14.90;62.30;;;;;;4995370;28;20027;-78
2023/05/18 13:28:11;;;;;;;3.28;1.48;;;14.80;63.00;;;;;;4995501;28;20114;-77
2023/05/18 13:30:38;;;;;;;3.15;1.80;;;14.70;63.60;;;;;;4970143;28;20030;-77
2023/05/18 13:33:07;;;;;;;4.07;1.75;;;14.70;64.10;;;;;;4982996;28;20027;-78
2023/05/18 13:35:33;;;;;;;3.28;1.85;;;14.80;64.20;;;;;;4975907;28;20544;-78
2023/05/18 13:37:58;;;;;;;5.05;2.00;;;14.90;63.60;;;;;;4962335;28;20099;-77
2023/05/18 13:40:24;;;;;;;4.88;1.77;;;14.90;63.50;;;;;;4996069;28;20034;-77
2023/05/18 13:42:50;;;;;;;3.90;1.70;;;14.80;63.50;;;;;;4995322;28;20038;-78
2023/05/18 13:45:17;;;;;;;2.55;1.50;;;14.90;63.80;;;;;;4994759;28;20057;-79
2023/05/18 13:47:46;;;;;;;7.15;1.73;;;15.10;63.80;;;;;;4995663;28;20106;-78
2023/05/18 13:50:12;;;;;;;4.55;1.92;;;15.30;63.60;;;;;;4977284;28;20439;-78
2023/05/18 13:52:37;;;;;;;1.95;1.30;;;15.60;63.60;;;;;;4977037;28;20030;-78
2023/05/18 13:55:05;;;;;;;3.30;2.10;;;16.10;63.20;;;;;;4974132;28;20023;-78
2023/05/18 13:57:31;;;;;;;3.50;1.38;;;16.40;61.80;;;;;;4976413;28;20027;-78
2023/05/18 13:59:58;;;;;;;3.75;1.60;;;16.50;60.70;;;;;;4982798;28;20117;-77
2023/05/18 14:02:25;;;;;;;5.85;1.80;;;16.40;59.60;;;;;;4996255;28;20321;-76
2023/05/18 14:04:51;;;;;;;5.00;1.92;;;16.20;60.70;;;;;;4995402;28;20026;-77
2023/05/18 14:07:17;;;;;;;5.40;2.03;;;16.20;61.40;;;;;;4995168;28;20034;-77
2023/05/18 14:09:43;;;;;;;2.90;1.75;;;16.00;61.40;;;;;;4986592;28;20081;-78
2023/05/18 14:12:09;;;;;;;4.30;1.55;;;16.00;62.30;;;;;;4976767;28;20023;-77
2023/05/18 14:14:36;;;;;;;3.75;1.40;;;15.90;62.30;;;;;;4976024;28;20082;-78
2023/05/18 14:17:01;;;;;;;4.28;2.20;;;15.90;62.60;;;;;;4975989;28;20023;-77
2023/05/18 14:19:28;;;;;;;8.02;2.40;;;;;;;;;;4979849;28;20026;-78
2023/05/18 14:21:53;;;;;;;3.22;1.70;;;15.40;62.30;;;;;;4994801;28;20030;-78
2023/05/18 14:24:19;;;;;;;4.63;1.83;;;15.20;64.10;;;;;;4993966;28;20085;-78
2023/05/18 14:26:45;;;;;;;5.13;1.58;;;15.20;64.60;;;;;;4994654;28;20026;-79
2023/05/18 14:29:10;;;;;;;3.97;1.90;;;15.20;64.80;;;;;;4990609;28;20157;-78
2023/05/18 14:31:36;;;;;;;3.42;1.88;;;15.10;64.70;;;;;;4986708;28;20418;-78
2023/05/18 14:34:02;;;;;;;4.43;1.70;;;14.90;64.50;;;;;;4994688;28;20030;-78
2023/05/18 14:36:27;;;;;;;4.95;2.47;;;14.70;65.50;;;;;;4994710;28;20125;-76
2023/05/18 14:38:53;;;;;;;4.50;1.83;;;14.50;66.40;;;;;;4993712;28;20101;-77
2023/05/18 14:41:20;;;;;;;4.40;1.73;;;14.40;66.80;;;;;;4980707;28;20389;-78
2023/05/18 14:43:46;;;;;;;5.93;1.88;;;14.50;67.00;;;;;;4976266;28;20101;-78
2023/05/18 14:46:12;;;;;;;1.65;1.55;;;14.40;66.50;;;;;;4974746;28;20190;-78
2023/05/18 14:48:38;;;;;;;4.63;1.77;;;14.30;67.20;;;;;;4975561;28;20031;-77
2023/05/18 14:51:03;;;;;;;1.95;1.40;;;14.20;67.60;;;;;;4975909;28;20027;-79
2023/05/18 14:53:29;;;;;;;2.67;1.63;;;14.20;67.90;;;;;;4977389;28;20027;-79
2023/05/18 14:55:55;;;;;;;2.85;1.67;;;14.20;68.10;;;;;;4975399;28;20704;-78
2023/05/18 14:58:21;;;;;;;2.83;1.42;;;14.10;68.50;;;;;;4957046;28;20399;-78
2023/05/18 15:00:47;;;;;;;4.65;2.15;;;14.10;68.70;;;;;;4985893;28;20031;-77
2023/05/18 15:03:12;;;;;;;3.50;1.70;;;14.00;69.00;;;;;;4976333;28;20026;-78
2023/05/18 15:05:38;;;;;;;4.90;1.92;;;13.90;69.70;;;;;;4993536;28;20510;-77
2023/05/18 15:08:04;;;;;;;2.60;1.35;;;13.80;70.00;;;;;;4994411;28;20031;-79
2023/05/18 15:10:30;;;;;;;3.53;1.45;;;13.70;70.50;;;;;;4995978;28;20022;-78
2023/05/18 15:12:55;;;;;;;4.00;1.40;;;13.70;70.90;;;;;;4975054;28;20031;-76
2023/05/18 15:15:21;;;;;;;3.45;1.40;;;13.70;71.10;;;;;;4974571;28;20042;-77
2023/05/18 15:17:47;;;;;;;3.22;1.38;;;13.80;71.10;;;;;;4977241;28;20066;-78
2023/05/18 15:20:12;;;;;;;1.77;1.20;;;13.80;71.20;;;;;;4977109;28;20180;-78
2023/05/18 15:22:40;;;;;;;2.05;1.20;;;13.80;71.20;;;;;;4988316;28;20030;-78
2023/05/18 15:25:06;;;;;;;2.65;1.50;;;13.90;70.90;;;;;;4977655;28;20038;-76
2023/05/18 15:27:36;;;;;;;1.85;1.15;;;13.90;70.50;;;;;;4985837;28;20046;-77
2023/05/18 15:30:09;;;;;;;1.38;1.02;;;13.90;70.20;;;;;;4969437;28;20053;-77
2023/05/18 15:32:36;;;;;;;1.50;1.00;;;13.90;70.20;;;;;;4980547;28;20031;-77
2023/05/18 15:35:02;;;;;;;2.00;0.82;;;14.00;70.30;;;;;;4974902;28;20033;-77
2023/05/18 15:37:28;;;;;;;4.13;1.17;;;14.10;70.30;;;;;;4958158;28;20100;-78
2023/05/18 15:39:53;;;;;;;1.52;1.17;;;14.10;70.00;;;;;;4974490;28;20123;-78
2023/05/18 15:42:20;;;;;;;2.47;1.10;;;13.90;70.50;;;;;;4981415;28;20026;-79
2023/05/18 15:44:46;;;;;;;3.85;1.02;;;13.80;70.00;;;;;;4992080;28;20050;-78
2023/05/18 15:47:11;;;;;;;1.10;1.00;;;13.60;70.30;;;;;;4977656;28;20506;-77
2023/05/18 15:49:37;;;;;;;2.00;1.20;;;13.60;70.80;;;;;;4995012;28;20023;-77
2023/05/18 15:52:03;;;;;;;2.25;1.20;;;13.50;71.20;;;;;;4995408;28;20105;-78
2023/05/18 15:54:29;;;;;;;1.30;1.08;;;13.40;71.40;;;;;;4976495;28;20030;-79
2023/05/18 15:56:55;;;;;;;0.88;0.75;;;13.40;71.80;;;;;;4995561;28;20429;-77
2023/05/18 15:59:23;;;;;;;1.08;0.75;;;13.40;72.10;;;;;;4997136;28;20057;-79
2023/05/18 16:01:49;;;;;;;2.47;1.60;;;13.40;72.90;;;;;;4986601;28;20483;-78
2023/05/18 16:04:15;;;;;;;1.35;1.02;;;13.40;72.60;;;;;;4979547;28;20049;-78
2023/05/18 16:06:41;;;;;;;3.08;1.10;;;13.40;72.90;;;;;;4979398;28;20546;-78